Terminal Aerodrome Forecast
Issued by NWS

Home | Current Version | Previous Version | Text Only | Print | Product List | Glossary On
Versions: 1 2 3 4 5 6 7 8 9 10 11 12
000
FTUS43 KTOP 011732
TAFMHK
TAF
KMHK 011732Z 0118/0218 VRB03KT P6SM BKN250
     FM012000 01007KT P6SM SCT250
     FM020900 02005KT P6SM BKN120
     FM021500 04005KT P6SM VCTS BKN050CB=

USA.gov is the U.S. government's official web portal to all federal, state and local government web resources and services.